Time;durP1;ratioP1;P1;durP2;ratioP2;P2;SDS_P1;SDS_P2;PMS_P1;PMS_P2;Temp;Humidity;BMP_temperature;BMP_pressure;BME280_temperature;BME280_humidity;BME280_pressure;Samples;Min_cycle;Max_cycle;Signal;HPM_P1;HPM_P2
2023/08/21 00:00:42;;;;;;;;;;;;;;;;;;5078945;28;4640;-48
2023/08/21 00:03:07;;;;;;;;;;;;;;;;;;5080785;28;5061;-45
2023/08/21 00:05:33;;;;;;;;;;;;;;;;;;5081477;28;1273;-47
2023/08/21 00:07:58;;;;;;;;;;;;;;;;;;5078412;28;4420;-50
2023/08/21 00:10:23;;;;;;;;;;;;;;;;;;5076468;28;5082;-50
2023/08/21 00:12:48;;;;;;;;;;;;;;;;;;5082792;28;5279;-49
2023/08/21 00:15:14;;;;;;;;;;;;;;;;;;5078951;28;5147;-46
2023/08/21 00:17:39;;;;;;;;;;;;;;;;;;5058819;28;5147;-46
2023/08/21 00:20:05;;;;;;;;;;;;;;;;;;5076022;28;1503;-49
2023/08/21 00:22:30;;;;;;;;;;;;;;;;;;5049776;28;5153;-48
2023/08/21 00:24:55;;;;;;;;;;;;;;;;;;5084149;28;4457;-47
2023/08/21 00:27:20;;;;;;;;;;;;;;;;;;5079948;28;5008;-46
2023/08/21 00:29:46;;;;;;;;;;;;;;;;;;5074884;28;4915;-47
2023/08/21 00:32:12;;;;;;;;;;;;;;;;;;5085290;28;1170;-50
2023/08/21 00:34:37;;;;;;;;;;;;;;;;;;5080994;28;4609;-45
2023/08/21 00:37:03;;;;;;;;;;;;;;;;;;5084170;28;5137;-47
2023/08/21 00:39:28;;;;;;;;;;;;;;;;;;5082981;28;5059;-47
2023/08/21 00:41:53;;;;;;;;;;;;;;;;;;5061522;28;5105;-46
2023/08/21 00:44:18;;;;;;;;;;;;;;;;;;5082747;28;1186;-47
2023/08/21 00:46:44;;;;;;;;;;;;;;;;;;5085154;28;4859;-47
2023/08/21 00:49:09;;;;;;;;;;;;;;;;;;5058328;28;4894;-48
2023/08/21 00:51:34;;;;;;;;;;;;;;;;;;5075176;28;4795;-48
2023/08/21 00:53:59;;;;;;;;;;;;;;;;;;5084501;28;5052;-48
2023/08/21 00:56:25;;;;;;;;;;;;;;;;;;5059800;28;1143;-48
2023/08/21 00:58:50;;;;;;;;;;;;;;;;;;5065094;28;5000;-45
2023/08/21 01:01:15;;;;;;;;;;;;;;;;;;5079582;28;5089;-47
2023/08/21 01:03:40;;;;;;;;;;;;;;;;;;5095186;28;4846;-46
2023/08/21 01:06:06;;;;;;;;;;;;;;;;;;5077805;28;4892;-47
2023/08/21 01:08:31;;;;;;;;;;;;;;;;;;5082959;28;1123;-47
2023/08/21 01:10:59;;;;;;;;;;;;;;;;;;5078997;28;5041;-47
2023/08/21 01:13:43;;;;;;;;;;;;;;;;;;5061854;28;5085;-46
2023/08/21 01:16:08;;;;;;;;;;;;;;;;;;5073713;28;5030;-47
2023/08/21 01:18:33;;;;;;;;;;;;;;;;;;5076091;28;4684;-47
2023/08/21 01:20:59;;;;;;;;;;;;;;;;;;5056166;28;4545;-48
2023/08/21 01:23:32;;;;;;;;;;;;;;;;;;5095435;28;1341;-49
2023/08/21 01:25:57;;;;;;;;;;;;;;;;;;5070949;28;5401;-48
2023/08/21 01:28:22;;;;;;;;;;;;;;;;;;5074703;28;5129;-47
2023/08/21 01:30:48;;;;;;;;;;;;;;;;;;5077336;28;5119;-47
2023/08/21 01:33:13;;;;;;;;;;;;;;;;;;5054200;28;4664;-49
2023/08/21 01:35:38;;;;;;;;;;;;;;;;;;5057178;28;1175;-48
2023/08/21 01:38:03;;;;;;;;;;;;;;;;;;5074387;28;4390;-47
2023/08/21 01:40:29;;;;;;;;;;;;;;;;;;5073839;28;4424;-47
2023/08/21 01:42:54;;;;;;;;;;;;;;;;;;5075141;28;4624;-47
2023/08/21 01:45:19;;;;;;;;;;;;;;;;;;5071118;28;5027;-46
2023/08/21 01:47:45;;;;;;;;;;;;;;;;;;5068901;28;5022;-47
2023/08/21 01:50:10;;;;;;;;;;;;;;;;;;5072793;28;1914;-47
2023/08/21 01:52:35;;;;;;;;;;;;;;;;;;5074935;28;5171;-48
2023/08/21 01:55:01;;;;;;;;;;;;;;;;;;5071347;28;6029;-47
2023/08/21 01:57:26;;;;;;;;;;;;;;;;;;5074172;28;5010;-46
2023/08/21 01:59:52;;;;;;;;;;;;;;;;;;5072281;28;5075;-46
2023/08/21 02:02:18;;;;;;;;;;;;;;;;;;5075631;28;1112;-49
2023/08/21 02:04:43;;;;;;;;;;;;;;;;;;5068600;28;5046;-46
2023/08/21 02:07:08;;;;;;;;;;;;;;;;;;5082213;28;5051;-49
2023/08/21 02:09:33;;;;;;;;;;;;;;;;;;5073984;28;5504;-46
2023/08/21 02:11:59;;;;;;;;;;;;;;;;;;5081418;28;5073;-46
2023/08/21 02:14:24;;;;;;;;;;;;;;;;;;5075848;28;1127;-47
2023/08/21 02:16:49;;;;;;;;;;;;;;;;;;5076781;28;5040;-46
2023/08/21 02:19:15;;;;;;;;;;;;;;;;;;5082436;28;5146;-48
2023/08/21 02:21:40;;;;;;;;;;;;;;;;;;5068404;28;5043;-48
2023/08/21 02:24:05;;;;;;;;;;;;;;;;;;5075583;28;5107;-49
2023/08/21 02:26:30;;;;;;;;;;;;;;;;;;5079704;28;1259;-50
2023/08/21 02:28:57;;;;;;;;;;;;;;;;;;5069230;28;5189;-47
2023/08/21 02:31:22;;;;;;;;;;;;;;;;;;5056020;28;5444;-47
2023/08/21 02:33:49;;;;;;;;;;;;;;;;;;5074597;28;4855;-47
2023/08/21 02:36:14;;;;;;;;;;;;;;;;;;5055764;28;5039;-47
2023/08/21 02:38:40;;;;;;;;;;;;;;;;;;5067785;28;5168;-48
2023/08/21 02:41:05;;;;;;;;;;;;;;;;;;5074530;28;1309;-50
2023/08/21 02:43:30;;;;;;;;;;;;;;;;;;5073398;28;5064;-49
2023/08/21 02:45:56;;;;;;;;;;;;;;;;;;5081975;28;5026;-47
2023/08/21 02:48:21;;;;;;;;;;;;;;;;;;5059299;28;5090;-46
2023/08/21 02:50:46;;;;;;;;;;;;;;;;;;5068881;28;5053;-48
2023/08/21 02:53:11;;;;;;;;;;;;;;;;;;5071585;28;1074;-47
2023/08/21 02:55:37;;;;;;;;;;;;;;;;;;5080589;28;5036;-45
2023/08/21 02:58:02;;;;;;;;;;;;;;;;;;5074899;28;4459;-48
2023/08/21 03:00:28;;;;;;;;;;;;;;;;;;5078214;28;5101;-47
2023/08/21 03:02:53;;;;;;;;;;;;;;;;;;5079084;28;5017;-47
2023/08/21 03:05:18;;;;;;;;;;;;;;;;;;5079009;28;1155;-48
2023/08/21 03:07:43;;;;;;;;;;;;;;;;;;5071542;28;5061;-47
2023/08/21 03:10:09;;;;;;;;;;;;;;;;;;5078547;28;4976;-49
2023/08/21 03:12:34;;;;;;;;;;;;;;;;;;5079704;28;5047;-51
2023/08/21 03:14:59;;;;;;;;;;;;;;;;;;5079558;28;5069;-49
2023/08/21 03:17:25;;;;;;;;;;;;;;;;;;5074943;28;4736;-48
2023/08/21 03:19:50;;;;;;;;;;;;;;;;;;5070132;28;4959;-46
2023/08/21 03:22:15;;;;;;;;;;;;;;;;;;5070417;28;4865;-45
2023/08/21 03:24:41;;;;;;;;;;;;;;;;;;5066595;28;5074;-47
2023/08/21 03:27:06;;;;;;;;;;;;;;;;;;5073218;28;4900;-46
2023/08/21 03:29:31;;;;;;;;;;;;;;;;;;5059103;28;1623;-47
2023/08/21 03:31:57;;;;;;;;;;;;;;;;;;5070301;28;4807;-47
2023/08/21 03:34:22;;;;;;;;;;;;;;;;;;5070731;28;4855;-46
2023/08/21 03:36:47;;;;;;;;;;;;;;;;;;5079210;28;5197;-46
2023/08/21 03:39:13;;;;;;;;;;;;;;;;;;5070914;28;4466;-48
2023/08/21 03:41:38;;;;;;;;;;;;;;;;;;5074313;28;1309;-47
2023/08/21 03:44:03;;;;;;;;;;;;;;;;;;5069377;28;4866;-45
2023/08/21 03:46:29;;;;;;;;;;;;;;;;;;5076807;28;4870;-47
2023/08/21 03:48:54;;;;;;;;;;;;;;;;;;5070867;28;4542;-47
2023/08/21 03:51:19;;;;;;;;;;;;;;;;;;5063357;28;4973;-47
2023/08/21 03:53:44;;;;;;;;;;;;;;;;;;5077033;28;5022;-47
2023/08/21 03:56:10;;;;;;;;;;;;;;;;;;5076060;28;1093;-50
2023/08/21 03:58:35;;;;;;;;;;;;;;;;;;5074451;28;5066;-46
2023/08/21 04:01:00;;;;;;;;;;;;;;;;;;5069405;28;5107;-47
2023/08/21 04:03:25;;;;;;;;;;;;;;;;;;5075659;28;5250;-47
2023/08/21 04:05:52;;;;;;;;;;;;;;;;;;5080486;28;5227;-46
2023/08/21 04:08:18;;;;;;;;;;;;;;;;;;5077497;28;1135;-46
2023/08/21 04:10:43;;;;;;;;;;;;;;;;;;5079894;28;4897;-46
2023/08/21 04:13:08;;;;;;;;;;;;;;;;;;5086732;28;4441;-50
2023/08/21 04:15:35;;;;;;;;;;;;;;;;;;5078373;28;4841;-46
2023/08/21 04:18:00;;;;;;;;;;;;;;;;;;5099794;28;5085;-45
2023/08/21 04:20:25;;;;;;;;;;;;;;;;;;5070228;28;1534;-48
2023/08/21 04:22:50;;;;;;;;;;;;;;;;;;5071292;28;5230;-46
2023/08/21 04:25:16;;;;;;;;;;;;;;;;;;5078926;28;4489;-46
2023/08/21 04:27:41;;;;;;;;;;;;;;;;;;5081008;28;4568;-47
2023/08/21 04:30:07;;;;;;;;;;;;;;;;;;5072246;28;5054;-47
2023/08/21 04:32:32;;;;;;;;;;;;;;;;;;5078568;28;1148;-49
2023/08/21 04:34:57;;;;;;;;;;;;;;;;;;5070231;28;4985;-47
2023/08/21 04:37:23;;;;;;;;;;;;;;;;;;5074453;28;5025;-45
2023/08/21 04:39:54;;;;;;;;;;;;;;;;;;5073854;28;5001;-46
2023/08/21 04:42:20;;;;;;;;;;;;;;;;;;5073843;28;5111;-46
2023/08/21 04:44:45;;;;;;;;;;;;;;;;;;5081816;28;5035;-48
2023/08/21 04:47:23;;;;;;;;;;;;;;;;;;5071069;28;1196;-46
2023/08/21 04:49:49;;;;;;;;;;;;;;;;;;5068780;28;4584;-49
2023/08/21 04:52:14;;;;;;;;;;;;;;;;;;5077056;28;5052;-46
2023/08/21 04:54:39;;;;;;;;;;;;;;;;;;5070984;28;5063;-48
2023/08/21 04:57:04;;;;;;;;;;;;;;;;;;5074717;28;5123;-50
2023/08/21 04:59:30;;;;;;;;;;;;;;;;;;5072425;28;2152;-46
2023/08/21 05:01:55;;;;;;;;;;;;;;;;;;5074739;28;4977;-47
2023/08/21 05:04:20;;;;;;;;;;;;;;;;;;5059417;28;4526;-48
2023/08/21 05:06:45;;;;;;;;;;;;;;;;;;5078957;28;5069;-48
2023/08/21 05:09:11;;;;;;;;;;;;;;;;;;5082154;28;4634;-49
2023/08/21 05:11:36;;;;;;;;;;;;;;;;;;5081054;28;1906;-48
2023/08/21 05:14:02;;;;;;;;;;;;;;;;;;5079384;28;4604;-49
2023/08/21 05:16:27;;;;;;;;;;;;;;;;;;5087644;28;4955;-46
2023/08/21 05:18:52;;;;;;;;;;;;;;;;;;5080988;28;4798;-46
2023/08/21 05:21:18;;;;;;;;;;;;;;;;;;5071811;28;4985;-48
2023/08/21 05:23:43;;;;;;;;;;;;;;;;;;5062423;28;4483;-46
2023/08/21 05:26:08;;;;;;;;;;;;;;;;;;5070101;28;1089;-48
2023/08/21 05:28:33;;;;;;;;;;;;;;;;;;5077670;28;4923;-49
2023/08/21 05:30:59;;;;;;;;;;;;;;;;;;5070445;28;4907;-50
2023/08/21 05:33:24;;;;;;;;;;;;;;;;;;5064224;28;4993;-48
2023/08/21 05:35:49;;;;;;;;;;;;;;;;;;5073948;28;5027;-46
2023/08/21 05:38:15;;;;;;;;;;;;;;;;;;5084914;28;1306;-48
2023/08/21 05:40:41;;;;;;;;;;;;;;;;;;5074104;28;4588;-54
2023/08/21 05:43:06;;;;;;;;;;;;;;;;;;5081718;28;5583;-54
2023/08/21 05:45:32;;;;;;;;;;;;;;;;;;5071882;28;4590;-54
2023/08/21 05:47:57;;;;;;;;;;;;;;;;;;5066074;28;4642;-50
2023/08/21 05:50:22;;;;;;;;;;;;;;;;;;5063441;28;1942;-48
2023/08/21 05:52:48;;;;;;;;;;;;;;;;;;5075715;28;4971;-50
2023/08/21 05:55:13;;;;;;;;;;;;;;;;;;5085054;28;5111;-49
2023/08/21 05:57:39;;;;;;;;;;;;;;;;;;5070696;28;4492;-51
2023/08/21 06:00:08;;;;;;;;;;;;;;;;;;5075422;28;5030;-49
2023/08/21 06:02:33;;;;;;;;;;;;;;;;;;5074019;28;1270;-49
2023/08/21 06:04:58;;;;;;;;;;;;;;;;;;5076632;28;4967;-50
2023/08/21 06:07:23;;;;;;;;;;;;;;;;;;5075906;28;4448;-50
2023/08/21 06:09:49;;;;;;;;;;;;;;;;;;5080060;28;5004;-49
2023/08/21 06:12:14;;;;;;;;;;;;;;;;;;5078099;28;5535;-49
2023/08/21 06:14:39;;;;;;;;;;;;;;;;;;5067737;28;4999;-48
2023/08/21 06:17:05;;;;;;;;;;;;;;;;;;5075820;28;4689;-49
2023/08/21 06:19:30;;;;;;;;;;;;;;;;;;5079456;28;4905;-49
2023/08/21 06:21:55;;;;;;;;;;;;;;;;;;5064692;28;4969;-50
2023/08/21 06:24:21;;;;;;;;;;;;;;;;;;5074527;28;4497;-50
2023/08/21 06:26:46;;;;;;;;;;;;;;;;;;5078880;28;5088;-50
2023/08/21 06:29:11;;;;;;;;;;;;;;;;;;5068058;28;1143;-48
2023/08/21 06:31:37;;;;;;;;;;;;;;;;;;5074428;28;4947;-51
2023/08/21 06:34:02;;;;;;;;;;;;;;;;;;5074039;28;4551;-48
2023/08/21 06:36:27;;;;;;;;;;;;;;;;;;5076130;28;4464;-49
2023/08/21 06:38:52;;;;;;;;;;;;;;;;;;5077197;28;4999;-46
2023/08/21 06:41:18;;;;;;;;;;;;;;;;;;5074336;28;1218;-50
2023/08/21 06:43:43;;;;;;;;;;;;;;;;;;5083117;28;4440;-50
2023/08/21 06:46:09;;;;;;;;;;;;;;;;;;5077175;28;4988;-49
2023/08/21 06:48:34;;;;;;;;;;;;;;;;;;5071876;28;4519;-49
2023/08/21 06:51:01;;;;;;;;;;;;;;;;;;5063835;28;4700;-48
2023/08/21 06:53:26;;;;;;;;;;;;;;;;;;5076908;28;1318;-47
2023/08/21 06:55:51;;;;;;;;;;;;;;;;;;5069859;28;5055;-50
2023/08/21 06:58:16;;;;;;;;;;;;;;;;;;5077902;28;5140;-49
2023/08/21 07:00:42;;;;;;;;;;;;;;;;;;5067190;28;4472;-48
2023/08/21 07:03:07;;;;;;;;;;;;;;;;;;5076844;28;4445;-52
2023/08/21 07:05:33;;;;;;;;;;;;;;;;;;5080286;28;1029;-51
2023/08/21 07:07:58;;;;;;;;;;;;;;;;;;5080118;28;4443;-49
2023/08/21 07:10:24;;;;;;;;;;;;;;;;;;5074450;28;4953;-49
2023/08/21 07:12:49;;;;;;;;;;;;;;;;;;5061659;28;4997;-52
2023/08/21 07:15:15;;;;;;;;;;;;;;;;;;5078547;28;5133;-50
2023/08/21 07:17:40;;;;;;;;;;;;;;;;;;5082337;28;5006;-51
2023/08/21 07:20:06;;;;;;;;;;;;;;;;;;5072226;28;1322;-50
2023/08/21 07:22:31;;;;;;;;;;;;;;;;;;5073921;28;4848;-47
2023/08/21 07:24:57;;;;;;;;;;;;;;;;;;5075368;28;5045;-50
2023/08/21 07:27:22;;;;;;;;;;;;;;;;;;5073793;28;5175;-46
2023/08/21 07:29:48;;;;;;;;;;;;;;;;;;5077197;28;4830;-50
2023/08/21 07:32:13;;;;;;;;;;;;;;;;;;5075765;28;1977;-52
2023/08/21 07:34:38;;;;;;;;;;;;;;;;;;5075810;28;4769;-51
2023/08/21 07:37:04;;;;;;;;;;;;;;;;;;5068904;28;4490;-49
2023/08/21 07:39:29;;;;;;;;;;;;;;;;;;5073830;28;5063;-49
2023/08/21 07:41:55;;;;;;;;;;;;;;;;;;5075813;28;4993;-51
2023/08/21 07:44:20;;;;;;;;;;;;;;;;;;5075879;28;1092;-51
2023/08/21 07:46:45;;;;;;;;;;;;;;;;;;5077773;28;5036;-51
2023/08/21 07:49:10;;;;;;;;;;;;;;;;;;5078110;28;5040;-49
2023/08/21 07:51:36;;;;;;;;;;;;;;;;;;5070598;28;4990;-52
2023/08/21 07:54:01;;;;;;;;;;;;;;;;;;5077356;28;5026;-51
2023/08/21 07:56:26;;;;;;;;;;;;;;;;;;5096159;28;1183;-51
2023/08/21 07:58:52;;;;;;;;;;;;;;;;;;5090636;28;5024;-49
2023/08/21 08:01:17;;;;;;;;;;;;;;;;;;5088847;28;4989;-53
2023/08/21 08:03:42;;;;;;;;;;;;;;;;;;5081727;28;5046;-50
2023/08/21 08:06:07;;;;;;;;;;;;;;;;;;5061190;28;4777;-49
2023/08/21 08:08:33;;;;;;;;;;;;;;;;;;5070582;28;1212;-52
2023/08/21 08:11:02;;;;;;;;;;;;;;;;;;5068085;28;4961;-51
2023/08/21 08:13:27;;;;;;;;;;;;;;;;;;5066982;28;4491;-47
2023/08/21 08:15:53;;;;;;;;;;;;;;;;;;5069854;28;5261;-50
2023/08/21 08:18:18;;;;;;;;;;;;;;;;;;5070090;28;4860;-49
2023/08/21 08:20:43;;;;;;;;;;;;;;;;;;5065564;28;4956;-49
2023/08/21 08:23:08;;;;;;;;;;;;;;;;;;5063913;28;1393;-47
2023/08/21 08:25:34;;;;;;;;;;;;;;;;;;5085329;28;5006;-51
2023/08/21 08:27:59;;;;;;;;;;;;;;;;;;5069812;28;4436;-50
2023/08/21 08:30:24;;;;;;;;;;;;;;;;;;5069802;28;5007;-51
2023/08/21 08:32:50;;;;;;;;;;;;;;;;;;5060838;28;4985;-50
2023/08/21 08:35:15;;;;;;;;;;;;;;;;;;5063729;28;1470;-50
2023/08/21 08:37:41;;;;;;;;;;;;;;;;;;5067898;28;5033;-50
2023/08/21 08:40:06;;;;;;;;;;;;;;;;;;5069343;28;5188;-48
2023/08/21 08:42:31;;;;;;;;;;;;;;;;;;5067384;28;4594;-50
2023/08/21 08:44:57;;;;;;;;;;;;;;;;;;5068022;28;5139;-49
2023/08/21 08:47:22;;;;;;;;;;;;;;;;;;5085417;28;1101;-47
2023/08/21 08:49:48;;;;;;;;;;;;;;;;;;5061503;28;4635;-51
2023/08/21 08:52:13;;;;;;;;;;;;;;;;;;5069607;28;5026;-51
2023/08/21 08:54:38;;;;;;;;;;;;;;;;;;5069078;28;4878;-49
2023/08/21 08:57:04;;;;;;;;;;;;;;;;;;5067270;28;5107;-49
2023/08/21 08:59:32;;;;;;;;;;;;;;;;;;5065412;28;3258;-49
2023/08/21 09:01:57;;;;;;;;;;;;;;;;;;5068673;28;4942;-49
2023/08/21 09:04:23;;;;;;;;;;;;;;;;;;5066715;28;4628;-52
2023/08/21 09:06:48;;;;;;;;;;;;;;;;;;5067123;28;4883;-49
2023/08/21 09:09:13;;;;;;;;;;;;;;;;;;5063397;28;5145;-46
2023/08/21 09:11:42;;;;;;;;;;;;;;;;;;5051193;28;3256;-50
2023/08/21 09:14:07;;;;;;;;;;;;;;;;;;5052036;28;4711;-50
2023/08/21 09:16:32;;;;;;;;;;;;;;;;;;5058271;28;4935;-50
2023/08/21 09:18:58;;;;;;;;;;;;;;;;;;5060939;28;5009;-49
2023/08/21 09:21:24;;;;;;;;;;;;;;;;;;5056388;28;5039;-49
2023/08/21 09:23:51;;;;;;;;;;;;;;;;;;5052019;28;4946;-51
2023/08/21 09:26:22;;;;;;;;;;;;;;;;;;5057772;28;2776;-47
2023/08/21 09:28:48;;;;;;;;;;;;;;;;;;5055317;28;4576;-47
2023/08/21 09:31:13;;;;;;;;;;;;;;;;;;5062393;28;4969;-50
2023/08/21 09:33:38;;;;;;;;;;;;;;;;;;5055894;28;4885;-51
2023/08/21 09:36:06;;;;;;;;;;;;;;;;;;5053325;28;5014;-48
2023/08/21 09:38:33;;;;;;;;;;;;;;;;;;5058064;28;1152;-52
2023/08/21 09:40:58;;;;;;;;;;;;;;;;;;5058329;28;4914;-49
2023/08/21 09:43:24;;;;;;;;;;;;;;;;;;5054270;28;4679;-49
2023/08/21 09:45:52;;;;;;;;;;;;;;;;;;5062325;28;4959;-52
2023/08/21 09:48:17;;;;;;;;;;;;;;;;;;5055639;28;4857;-52
2023/08/21 09:50:42;;;;;;;;;;;;;;;;;;5051882;28;5118;-49
2023/08/21 09:53:08;;;;;;;;;;;;;;;;;;5064470;28;1552;-48
2023/08/21 09:55:33;;;;;;;;;;;;;;;;;;5067043;28;5056;-51
2023/08/21 09:57:58;;;;;;;;;;;;;;;;;;5064763;28;5158;-52
2023/08/21 10:00:28;;;;;;;;;;;;;;;;;;5067837;28;4875;-51
2023/08/21 10:02:53;;;;;;;;;;;;;;;;;;5081769;28;5005;-49
2023/08/21 10:05:19;;;;;;;;;;;;;;;;;;5067985;28;3324;-51
2023/08/21 10:07:46;;;;;;;;;;;;;;;;;;5067722;28;5157;-49
2023/08/21 10:10:12;;;;;;;;;;;;;;;;;;5064556;28;5046;-51
2023/08/21 10:12:37;;;;;;;;;;;;;;;;;;5066113;28;5074;-50
2023/08/21 10:15:03;;;;;;;;;;;;;;;;;;5069797;28;5025;-51
2023/08/21 10:17:28;;;;;;;;;;;;;;;;;;5074123;28;4890;-53
2023/08/21 10:19:54;;;;;;;;;;;;;;;;;;5061713;28;4641;-49
2023/08/21 10:22:54;;;;;;;;;;;;;;;;;;5066157;28;5326;-50
2023/08/21 10:25:23;;;;;;;;;;;;;;;;;;5068274;28;5000;-49
2023/08/21 10:27:52;;;;;;;;;;;;;;;;;;5065078;28;4939;-51
2023/08/21 10:30:24;;;;;;;;;;;;;;;;;;5063001;28;5323;-50
2023/08/21 10:32:50;;;;;;;;;;;;;;;;;;5067331;28;5030;-50
2023/08/21 10:35:17;;;;;;;;;;;;;;;;;;5068256;28;1597;-49
2023/08/21 10:38:12;;;;;;;;;;;;;;;;;;5066574;28;5073;-51
2023/08/21 10:40:38;;;;;;;;;;;;;;;;;;5054966;28;5150;-50
2023/08/21 10:43:04;;;;;;;;;;;;;;;;;;5064097;28;5166;-47
2023/08/21 10:45:29;;;;;;;;;;;;;;;;;;5067105;28;4920;-51
2023/08/21 10:47:58;;;;;;;;;;;;;;;;;;5056195;28;4947;-50
2023/08/21 10:50:23;;;;;;;;;;;;;;;;;;5065913;28;1987;-51
2023/08/21 10:52:49;;;;;;;;;;;;;;;;;;5067391;28;4908;-49
2023/08/21 10:55:14;;;;;;;;;;;;;;;;;;5064889;28;5125;-49
2023/08/21 10:57:42;;;;;;;;;;;;;;;;;;5066482;28;4660;-50
2023/08/21 11:00:11;;;;;;;;;;;;;;;;;;5066388;28;5180;-50
2023/08/21 11:02:37;;;;;;;;;;;;;;;;;;5066162;28;3261;-51
2023/08/21 11:05:03;;;;;;;;;;;;;;;;;;5058010;28;5246;-52
2023/08/21 11:07:28;;;;;;;;;;;;;;;;;;5065361;28;5094;-51
2023/08/21 11:09:53;;;;;;;;;;;;;;;;;;5059808;28;4466;-50
2023/08/21 11:12:20;;;;;;;;;;;;;;;;;;5065489;28;5004;-55
2023/08/21 11:14:45;;;;;;;;;;;;;;;;;;5063831;28;4970;-49
2023/08/21 11:17:11;;;;;;;;;;;;;;;;;;5064118;28;4704;-50
2023/08/21 11:19:36;;;;;;;;;;;;;;;;;;5066598;28;4977;-51
2023/08/21 11:22:05;;;;;;;;;;;;;;;;;;5069745;28;5004;-51
2023/08/21 11:24:40;;;;;;;;;;;;;;;;;;5058129;28;5047;-51
2023/08/21 11:27:06;;;;;;;;;;;;;;;;;;5066012;28;5178;-53
2023/08/21 11:29:32;;;;;;;;;;;;;;;;;;5070446;28;1142;-49
2023/08/21 11:31:58;;;;;;;;;;;;;;;;;;5064135;28;5227;-54
2023/08/21 11:34:23;;;;;;;;;;;;;;;;;;5067827;28;5071;-55
2023/08/21 11:36:48;;;;;;;;;;;;;;;;;;5069787;28;5047;-54
2023/08/21 11:39:13;;;;;;;;;;;;;;;;;;5066988;28;5022;-53
2023/08/21 11:41:54;;;;;;;;;;;;;;;;;;5069642;28;4472;-51
2023/08/21 11:44:20;;;;;;;;;;;;;;;;;;5069727;28;1255;-53
2023/08/21 11:46:45;;;;;;;;;;;;;;;;;;5068756;28;5069;-53
2023/08/21 11:49:10;;;;;;;;;;;;;;;;;;5069821;28;5026;-53
2023/08/21 11:51:39;;;;;;;;;;;;;;;;;;5064949;28;5056;-53
2023/08/21 11:54:04;;;;;;;;;;;;;;;;;;5081116;28;5000;-53
2023/08/21 11:56:30;;;;;;;;;;;;;;;;;;5052558;28;1326;-52
2023/08/21 11:58:55;;;;;;;;;;;;;;;;;;5051326;28;5106;-53
2023/08/21 12:01:21;;;;;;;;;;;;;;;;;;5063831;28;4681;-52
2023/08/21 12:03:46;;;;;;;;;;;;;;;;;;5070596;28;4416;-53
2023/08/21 12:06:11;;;;;;;;;;;;;;;;;;5070724;28;4520;-55
2023/08/21 12:08:37;;;;;;;;;;;;;;;;;;5062402;28;3347;-52
2023/08/21 12:11:02;;;;;;;;;;;;;;;;;;5057572;28;5021;-54
2023/08/21 12:13:28;;;;;;;;;;;;;;;;;;5069013;28;4681;-55
2023/08/21 12:15:53;;;;;;;;;;;;;;;;;;5089911;28;4963;-49
2023/08/21 12:18:18;;;;;;;;;;;;;;;;;;5066557;28;4984;-49
2023/08/21 12:20:43;;;;;;;;;;;;;;;;;;5063175;28;5043;-48
2023/08/21 12:23:09;;;;;;;;;;;;;;;;;;5069529;28;3258;-47
2023/08/21 12:25:34;;;;;;;;;;;;;;;;;;5068493;28;5061;-48
2023/08/21 12:27:59;;;;;;;;;;;;;;;;;;5052348;28;5108;-55
2023/08/21 12:30:25;;;;;;;;;;;;;;;;;;5069159;28;4918;-51
2023/08/21 12:32:50;;;;;;;;;;;;;;;;;;5063794;28;5050;-51
2023/08/21 12:35:15;;;;;;;;;;;;;;;;;;5059554;28;3114;-47
2023/08/21 12:37:40;;;;;;;;;;;;;;;;;;5070315;28;4852;-48
2023/08/21 12:40:06;;;;;;;;;;;;;;;;;;5068511;28;5051;-48
2023/08/21 12:42:31;;;;;;;;;;;;;;;;;;5069408;28;4626;-48
2023/08/21 12:44:56;;;;;;;;;;;;;;;;;;5061187;28;5199;-47
2023/08/21 12:47:22;;;;;;;;;;;;;;;;;;5068438;28;3298;-48
2023/08/21 12:49:47;;;;;;;;;;;;;;;;;;5062298;28;4978;-47
2023/08/21 12:52:12;;;;;;;;;;;;;;;;;;5061766;28;5027;-47
2023/08/21 12:54:38;;;;;;;;;;;;;;;;;;5066119;28;5537;-48
2023/08/21 12:57:04;;;;;;;;;;;;;;;;;;5068587;28;5174;-47
2023/08/21 12:59:29;;;;;;;;;;;;;;;;;;5066229;28;3134;-48
2023/08/21 13:01:54;;;;;;;;;;;;;;;;;;5051024;28;5088;-52
2023/08/21 13:04:20;;;;;;;;;;;;;;;;;;5064491;28;5931;-53
2023/08/21 13:06:45;;;;;;;;;;;;;;;;;;5060835;28;4926;-52
2023/08/21 13:09:10;;;;;;;;;;;;;;;;;;5060543;28;4468;-49
2023/08/21 13:11:36;;;;;;;;;;;;;;;;;;5045227;28;3235;-51
2023/08/21 13:14:01;;;;;;;;;;;;;;;;;;5064372;28;4779;-53
2023/08/21 13:16:26;;;;;;;;;;;;;;;;;;5059615;28;5096;-49
2023/08/21 13:18:52;;;;;;;;;;;;;;;;;;5066412;28;5033;-48
2023/08/21 13:21:17;;;;;;;;;;;;;;;;;;5062022;28;5085;-57
2023/08/21 13:23:42;;;;;;;;;;;;;;;;;;5036560;28;5388;-58
2023/08/21 13:26:08;;;;;;;;;;;;;;;;;;5058520;28;3733;-57
2023/08/21 13:28:34;;;;;;;;;;;;;;;;;;5058111;28;5859;-55
2023/08/21 13:30:59;;;;;;;;;;;;;;;;;;5063059;28;4587;-56
2023/08/21 13:33:24;;;;;;;;;;;;;;;;;;5057303;28;4476;-57
2023/08/21 13:35:49;;;;;;;;;;;;;;;;;;5063678;28;5155;-56
2023/08/21 13:38:15;;;;;;;;;;;;;;;;;;5052260;28;3537;-56
2023/08/21 13:40:40;;;;;;;;;;;;;;;;;;5061638;28;5026;-55
2023/08/21 13:43:07;;;;;;;;;;;;;;;;;;5046737;28;4564;-55
2023/08/21 13:45:32;;;;;;;;;;;;;;;;;;5054287;28;5097;-53
2023/08/21 13:47:57;;;;;;;;;;;;;;;;;;5057506;28;4437;-57
2023/08/21 13:50:22;;;;;;;;;;;;;;;;;;5067393;28;1914;-56
2023/08/21 13:52:48;;;;;;;;;;;;;;;;;;5063285;28;4878;-56
2023/08/21 13:55:13;;;;;;;;;;;;;;;;;;5062907;28;5087;-55
2023/08/21 13:57:38;;;;;;;;;;;;;;;;;;5059341;28;4643;-56
2023/08/21 14:00:07;;;;;;;;;;;;;;;;;;5058698;28;5133;-55
2023/08/21 14:02:33;;;;;;;;;;;;;;;;;;5066082;28;1132;-54
2023/08/21 14:04:58;;;;;;;;;;;;;;;;;;5047028;28;4432;-55
2023/08/21 14:07:24;;;;;;;;;;;;;;;;;;5060248;28;5025;-55
2023/08/21 14:09:49;;;;;;;;;;;;;;;;;;5062337;28;5056;-56
2023/08/21 14:12:14;;;;;;;;;;;;;;;;;;5057603;28;5022;-55
2023/08/21 14:14:40;;;;;;;;;;;;;;;;;;5058080;28;5136;-55
2023/08/21 14:17:05;;;;;;;;;;;;;;;;;;5057101;28;4705;-55
2023/08/21 14:19:30;;;;;;;;;;;;;;;;;;5060203;28;5256;-55
2023/08/21 14:21:57;;;;;;;;;;;;;;;;;;5064725;28;5068;-55
2023/08/21 14:24:22;;;;;;;;;;;;;;;;;;5058333;28;4505;-55
2023/08/21 14:26:47;;;;;;;;;;;;;;;;;;5065730;28;5509;-55
2023/08/21 14:29:12;;;;;;;;;;;;;;;;;;5062740;28;1275;-53
2023/08/21 14:31:38;;;;;;;;;;;;;;;;;;5059276;28;5605;-53
2023/08/21 14:34:03;;;;;;;;;;;;;;;;;;5062035;28;4509;-54
2023/08/21 14:36:28;;;;;;;;;;;;;;;;;;5064885;28;5087;-55
2023/08/21 14:38:53;;;;;;;;;;;;;;;;;;5060103;28;4978;-55
2023/08/21 14:41:19;;;;;;;;;;;;;;;;;;5065247;28;2189;-55
2023/08/21 14:43:44;;;;;;;;;;;;;;;;;;5061639;28;5138;-55
2023/08/21 14:46:10;;;;;;;;;;;;;;;;;;5056914;28;5066;-56
2023/08/21 14:48:35;;;;;;;;;;;;;;;;;;5065113;28;5230;-56
2023/08/21 14:51:00;;;;;;;;;;;;;;;;;;5055317;28;5049;-55
2023/08/21 14:53:26;;;;;;;;;;;;;;;;;;5064525;28;1382;-57
2023/08/21 14:55:51;;;;;;;;;;;;;;;;;;5062128;28;4998;-56
2023/08/21 14:58:16;;;;;;;;;;;;;;;;;;5059747;28;5036;-56
2023/08/21 15:00:41;;;;;;;;;;;;;;;;;;5063371;28;4646;-55
2023/08/21 15:03:07;;;;;;;;;;;;;;;;;;5045313;28;5104;-55
2023/08/21 15:05:32;;;;;;;;;;;;;;;;;;5054239;28;3505;-57
2023/08/21 15:07:59;;;;;;;;;;;;;;;;;;5061293;28;5019;-56
2023/08/21 15:10:25;;;;;;;;;;;;;;;;;;5059185;28;5017;-57
2023/08/21 15:12:50;;;;;;;;;;;;;;;;;;5065352;28;5076;-57
2023/08/21 15:15:15;;;;;;;;;;;;;;;;;;5056208;28;4755;-56
2023/08/21 15:17:40;;;;;;;;;;;;;;;;;;5059301;28;5049;-50
2023/08/21 15:20:06;;;;;;;;;;;;;;;;;;5053423;28;2205;-52
2023/08/21 15:22:32;;;;;;;;;;;;;;;;;;5061719;28;5070;-51
2023/08/21 15:24:57;;;;;;;;;;;;;;;;;;5067225;28;5055;-50
2023/08/21 15:27:23;;;;;;;;;;;;;;;;;;5058588;28;4958;-50
2023/08/21 15:29:48;;;;;;;;;;;;;;;;;;5065493;28;4447;-51
2023/08/21 15:32:13;;;;;;;;;;;;;;;;;;5068217;28;3295;-51
2023/08/21 15:34:38;;;;;;;;;;;;;;;;;;5058357;28;5067;-54
2023/08/21 15:37:04;;;;;;;;;;;;;;;;;;5070488;28;4935;-54
2023/08/21 15:39:29;;;;;;;;;;;;;;;;;;5065407;28;5000;-50
2023/08/21 15:41:54;;;;;;;;;;;;;;;;;;5066270;28;4652;-52
2023/08/21 15:44:19;;;;;;;;;;;;;;;;;;5070387;28;1223;-50
2023/08/21 15:46:45;;;;;;;;;;;;;;;;;;5071979;28;5020;-49
2023/08/21 15:49:11;;;;;;;;;;;;;;;;;;5073802;28;5204;-52
2023/08/21 15:51:37;;;;;;;;;;;;;;;;;;5072701;28;5197;-52
2023/08/21 15:54:02;;;;;;;;;;;;;;;;;;5080488;28;5059;-49
2023/08/21 15:56:27;;;;;;;;;;;;;;;;;;5054309;28;3358;-51
2023/08/21 15:58:55;;;;;;;;;;;;;;;;;;5061086;28;5451;-50
2023/08/21 16:01:21;;;;;;;;;;;;;;;;;;5069586;28;5016;-52
2023/08/21 16:03:46;;;;;;;;;;;;;;;;;;5075234;28;5062;-50
2023/08/21 16:06:11;;;;;;;;;;;;;;;;;;5072698;28;5073;-53
2023/08/21 16:08:36;;;;;;;;;;;;;;;;;;5077117;28;1228;-52
2023/08/21 16:11:02;;;;;;;;;;;;;;;;;;5077755;28;4474;-52
2023/08/21 16:13:28;;;;;;;;;;;;;;;;;;5054550;28;5071;-51
2023/08/21 16:15:54;;;;;;;;;;;;;;;;;;5073111;28;5192;-51
2023/08/21 16:18:19;;;;;;;;;;;;;;;;;;5068091;28;5053;-51
2023/08/21 16:20:44;;;;;;;;;;;;;;;;;;5068925;28;4851;-51
2023/08/21 16:23:10;;;;;;;;;;;;;;;;;;5080757;28;1180;-52
2023/08/21 16:25:35;;;;;;;;;;;;;;;;;;5076701;28;4948;-50
2023/08/21 16:28:00;;;;;;;;;;;;;;;;;;5072467;28;5328;-51
2023/08/21 16:30:26;;;;;;;;;;;;;;;;;;5082305;28;5014;-51
2023/08/21 16:32:51;;;;;;;;;;;;;;;;;;5071311;28;4998;-53
2023/08/21 16:35:17;;;;;;;;;;;;;;;;;;5073901;28;1191;-52
2023/08/21 16:37:42;;;;;;;;;;;;;;;;;;5075549;28;4940;-52
2023/08/21 16:40:08;;;;;;;;;;;;;;;;;;5083392;28;5312;-50
2023/08/21 16:42:33;;;;;;;;;;;;;;;;;;5070613;28;5009;-52
2023/08/21 16:44:58;;;;;;;;;;;;;;;;;;5065294;28;5360;-51
2023/08/21 16:47:24;;;;;;;;;;;;;;;;;;5073630;28;1123;-51
2023/08/21 16:49:49;;;;;;;;;;;;;;;;;;5075402;28;4867;-51
2023/08/21 16:52:15;;;;;;;;;;;;;;;;;;5066684;28;4450;-52